Time;durP1;ratioP1;P1;durP2;ratioP2;P2;SDS_P1;SDS_P2;PMS_P1;PMS_P2;Temp;Humidity;BMP_temperature;BMP_pressure;BME280_temperature;BME280_humidity;BME280_pressure;Samples;Min_cycle;Max_cycle;Signal;HPM_P1;HPM_P2
2022/09/20 05:29:52;;;;;;;;;;;;;;;14.37;49.93;97262.28;4246323;27;10233;-69
2022/09/20 05:32:03;;;;;;;;;;;;;;;14.70;49.43;97264.94;4233074;27;6332;-69
2022/09/20 05:34:17;;;;;;;;;;;;;;;14.92;49.36;97265.50;4217869;27;5770;-68
2022/09/20 05:36:28;;;;;;;;;;;;;;;15.09;48.87;97265.88;4216009;28;5708;-68
2022/09/20 05:38:47;;;;;;;;;;;;;;;15.24;49.00;97257.63;4235321;27;5851;-68
2022/09/20 05:41:04;;;;;;;;;;;;;;;15.36;48.76;97272.72;4230701;27;5796;-69
2022/09/20 05:43:11;;;;;;;;;;;;;;;15.44;48.64;97259.19;4229130;28;5799;-69
2022/09/20 05:45:31;;;;;;;;;;;;;;;15.55;48.19;97270.19;4232396;27;5780;-69
2022/09/20 05:47:45;;;;;;;;;;;;;;;15.60;48.44;97273.88;4227643;27;5717;-68
2022/09/20 05:50:00;;;;;;;;;;;;;;;15.63;48.18;97275.31;4228031;28;5678;-69
2022/09/20 05:52:25;;;;;;;;;;;;;;;15.63;48.25;97278.81;4225701;28;5668;-69
2022/09/20 05:54:55;;;;;;;;;;;;;;;15.65;47.99;97276.75;4226951;28;5738;-69
2022/09/20 05:57:12;;;;;;;;;;;;;;;15.67;48.10;97281.84;4227643;28;6430;-68
2022/09/20 05:59:28;;;;;;;;;;;;;;;15.71;48.25;97280.38;4242414;27;5925;-70
2022/09/20 06:01:39;;;;;;;;;;;;;;;15.73;48.11;97278.31;4247902;27;5664;-70
2022/09/20 06:03:47;;;;;;;;;;;;;;;15.77;48.01;97273.41;4242926;27;5645;-66
2022/09/20 06:06:02;;;;;;;;;;;;;;;15.80;48.04;97283.63;4248044;27;5729;-68
2022/09/20 06:08:23;;;;;;;;;;;;;;;15.83;47.83;97294.66;4236618;27;5908;-68
2022/09/20 06:10:54;;;;;;;;;;;;;;;15.85;47.84;97294.44;4234766;27;5793;-68
2022/09/20 06:13:03;;;;;;;;;;;;;;;15.88;47.59;97299.38;4225328;28;6247;-68
2022/09/20 06:15:17;;;;;;;;;;;;;;;15.90;47.69;97305.31;4219631;27;5704;-69
2022/09/20 06:17:28;;;;;;;;;;;;;;;15.91;47.67;97297.09;4217281;28;6001;-69
2022/09/20 06:19:39;;;;;;;;;;;;;;;15.93;47.75;97304.88;4229603;27;5761;-68
2022/09/20 06:21:50;;;;;;;;;;;;;;;15.96;47.75;97299.09;4229939;27;5870;-68
2022/09/20 06:23:58;;;;;;;;;;;;;;;15.98;47.38;97305.88;4217899;27;5703;-67
2022/09/20 06:26:06;;;;;;;;;;;;;;;15.99;47.76;97299.50;4225221;27;5902;-68
2022/09/20 06:28:16;;;;;;;;;;;;;;;16.02;47.38;97308.91;4224241;28;5800;-67
2022/09/20 06:30:25;;;;;;;;;;;;;;;16.04;47.28;97301.50;4214891;28;5789;-68
2022/09/20 06:32:33;;;;;;;;;;;;;;;16.06;47.58;97311.97;4219340;28;5674;-68
2022/09/20 06:34:36;;;;;;;;;;;;;;;16.08;47.33;97310.72;4202526;28;6480;-69
2022/09/20 06:41:41;;;;;;;;;;;;;;;16.16;47.24;97313.13;4222852;28;5675;-67
2022/09/20 06:43:44;;;;;;;;;;;;;;;16.20;47.09;97309.00;4221938;28;5694;-68
2022/09/20 06:45:47;;;;;;;;;;;;;;;16.22;47.19;97312.28;4235356;28;5641;-68
2022/09/20 06:47:52;;;;;;;;;;;;;;;16.22;47.01;97306.94;4235335;28;5836;-68
2022/09/20 06:49:57;;;;;;;;;;;;;;;16.23;47.13;97305.91;4200703;28;5786;-68
2022/09/20 06:52:00;;;;;;;;;;;;;;;16.24;47.00;97315.53;4202192;28;7959;-68
2022/09/20 06:54:07;;;;;;;;;;;;;;;16.26;47.15;97321.47;4205205;28;5778;-67
2022/09/20 06:56:16;;;;;;;;;;;;;;;16.26;46.99;97304.66;4235599;28;5649;-68
2022/09/20 06:58:19;;;;;;;;;;;;;;;16.27;46.80;97312.44;4219693;28;5741;-68
2022/09/20 07:00:22;;;;;;;;;;;;;;;16.27;46.68;97315.09;4218815;28;5710;-67
2022/09/20 07:02:25;;;;;;;;;;;;;;;16.28;46.72;97314.06;4219059;28;5874;-68
2022/09/20 07:04:31;;;;;;;;;;;;;;;16.32;46.48;97311.81;4218296;28;5667;-68
2022/09/20 07:06:35;;;;;;;;;;;;;;;16.33;46.90;97308.09;4235087;28;5660;-67
2022/09/20 07:08:39;;;;;;;;;;;;;;;16.34;46.67;97311.59;4235835;28;5633;-68
2022/09/20 07:10:42;;;;;;;;;;;;;;;16.39;46.78;97314.41;4235677;27;5704;-68
2022/09/20 07:12:46;;;;;;;;;;;;;;;16.41;46.49;97312.31;4235788;28;6260;-68
2022/09/20 07:14:50;;;;;;;;;;;;;;;16.43;46.78;97315.63;4235640;27;5661;-68
2022/09/20 07:16:53;;;;;;;;;;;;;;;16.46;46.54;97310.66;4235547;27;5681;-68
2022/09/20 07:18:56;;;;;;;;;;;;;;;16.47;46.58;97300.81;4235183;27;5732;-68
2022/09/20 07:21:01;;;;;;;;;;;;;;;16.49;46.60;97312.88;4235480;27;5645;-69
2022/09/20 07:23:05;;;;;;;;;;;;;;;16.53;46.33;97315.94;4235418;28;5761;-68
2022/09/20 07:25:09;;;;;;;;;;;;;;;16.54;46.58;97313.06;4220486;28;5819;-68
2022/09/20 07:27:12;;;;;;;;;;;;;;;16.55;46.40;97303.19;4216680;28;5735;-68
2022/09/20 07:29:18;;;;;;;;;;;;;;;16.59;46.57;97297.19;4215027;28;5902;-68
2022/09/20 07:31:23;;;;;;;;;;;;;;;16.63;46.32;97300.25;4214631;28;5663;-68
2022/09/20 07:33:29;;;;;;;;;;;;;;;16.66;46.44;97315.84;4216304;28;5687;-67
2022/09/20 07:35:33;;;;;;;;;;;;;;;16.69;46.53;97306.59;4217539;28;5679;-67
2022/09/20 07:37:40;;;;;;;;;;;;;;;16.70;46.38;97308.22;4205672;27;5783;-68
2022/09/20 07:39:44;;;;;;;;;;;;;;;16.73;46.18;97316.59;4200017;28;5786;-68
2022/09/20 07:41:49;;;;;;;;;;;;;;;16.78;46.26;97310.63;4208037;28;5719;-68
2022/09/20 07:43:52;;;;;;;;;;;;;;;16.81;46.17;97313.66;4218357;28;5821;-68
2022/09/20 07:45:58;;;;;;;;;;;;;;;16.80;46.14;97312.03;4216893;28;5777;-69
2022/09/20 07:48:04;;;;;;;;;;;;;;;16.77;46.06;97312.47;4216116;28;5718;-69
2022/09/20 07:50:08;;;;;;;;;;;;;;;16.79;45.80;97314.94;4216970;28;5651;-70
2022/09/20 07:52:13;;;;;;;;;;;;;;;16.80;45.77;97316.56;4217209;28;5671;-69
2022/09/20 07:54:18;;;;;;;;;;;;;;;16.77;45.64;97311.66;4217301;28;5758;-69
2022/09/20 07:56:23;;;;;;;;;;;;;;;16.74;45.75;97312.91;4204801;28;5755;-69
2022/09/20 07:58:26;;;;;;;;;;;;;;;16.77;45.85;97325.03;4204538;28;5892;-68
2022/09/20 08:00:32;;;;;;;;;;;;;;;16.79;45.71;97321.09;4217989;27;5674;-69
2022/09/20 08:02:35;;;;;;;;;;;;;;;16.82;45.65;97319.81;4216497;28;5772;-69
2022/09/20 08:04:39;;;;;;;;;;;;;;;16.84;45.69;97315.88;4217426;28;5676;-69
2022/09/20 08:06:44;;;;;;;;;;;;;;;16.81;45.36;97313.66;4213168;28;5753;-69
2022/09/20 08:08:48;;;;;;;;;;;;;;;16.80;45.45;97320.03;4217460;27;5722;-69
2022/09/20 08:10:54;;;;;;;;;;;;;;;16.84;45.46;97325.75;4216655;28;5224;-68
2022/09/20 08:12:59;;;;;;;;;;;;;;;16.87;45.18;97322.63;4217359;28;5683;-69
2022/09/20 08:15:24;;;;;;;;;;;;;;;16.91;45.03;97320.38;4217018;28;5766;-69
2022/09/20 08:17:28;;;;;;;;;;;;;;;16.96;44.94;97324.00;4217024;28;5686;-69
2022/09/20 08:19:32;;;;;;;;;;;;;;;16.97;44.85;97325.63;4216686;28;5985;-69
2022/09/20 08:21:38;;;;;;;;;;;;;;;17.01;44.79;97320.69;4216441;28;6950;-69
2022/09/20 08:23:46;;;;;;;;;;;;;;;17.04;44.69;97323.72;4217456;27;5746;-69
2022/09/20 08:25:51;;;;;;;;;;;;;;;17.11;44.56;97329.00;4215280;28;5673;-68
2022/09/20 08:27:59;;;;;;;;;;;;;;;17.17;44.77;97328.91;4215770;28;5663;-68
2022/09/20 08:30:02;;;;;;;;;;;;;;;17.20;44.78;97324.97;4216376;28;5664;-68
2022/09/20 08:32:05;;;;;;;;;;;;;;;17.24;44.49;97326.19;4214588;28;5144;-68
2022/09/20 08:34:10;;;;;;;;;;;;;;;17.29;44.63;97323.66;4216050;28;5700;-69
2022/09/20 08:36:15;;;;;;;;;;;;;;;17.34;44.29;97329.16;4215817;28;5800;-69
2022/09/20 08:38:18;;;;;;;;;;;;;;;17.35;44.41;97320.09;4217243;28;5753;-69
2022/09/20 08:40:41;;;;;;;;;;;;;;;17.39;44.39;97323.13;4216405;28;5662;-69
2022/09/20 08:42:47;;;;;;;;;;;;;;;17.41;44.37;97326.41;4216269;28;5777;-69
2022/09/20 08:44:55;;;;;;;;;;;;;;;17.45;44.34;97325.75;4217236;28;5819;-69
2022/09/20 08:47:06;;;;;;;;;;;;;;;17.49;44.10;97330.63;4217056;28;5658;-69
2022/09/20 08:49:19;;;;;;;;;;;;;;;17.55;44.11;97321.69;4216023;28;5393;-69
2022/09/20 08:51:33;;;;;;;;;;;;;;;17.60;44.02;97327.22;4211238;28;7707;-69
2022/09/20 08:53:40;;;;;;;;;;;;;;;17.64;43.94;97336.41;4216388;28;5933;-69
2022/09/20 08:55:51;;;;;;;;;;;;;;;17.67;43.76;97334.13;4200184;28;5695;-68
2022/09/20 08:57:58;;;;;;;;;;;;;;;17.66;43.73;97331.63;4215629;28;5824;-68
2022/09/20 09:00:02;;;;;;;;;;;;;;;17.68;43.53;97332.25;4216795;28;5662;-68
2022/09/20 09:02:15;;;;;;;;;;;;;;;17.64;43.73;97329.19;4217042;28;5767;-68
2022/09/20 09:04:23;;;;;;;;;;;;;;;17.68;43.47;97332.25;4216756;28;5667;-69
2022/09/20 09:06:26;;;;;;;;;;;;;;;17.68;43.30;97332.25;4216688;28;5769;-68
2022/09/20 09:08:36;;;;;;;;;;;;;;;17.66;43.39;97332.44;4215000;28;5658;-69
2022/09/20 09:10:40;;;;;;;;;;;;;;;17.68;43.30;97324.25;4217407;28;5663;-70
2022/09/20 09:12:47;;;;;;;;;;;;;;;17.68;43.40;97325.06;4217124;28;6597;-70
2022/09/20 09:14:58;;;;;;;;;;;;;;;17.71;43.28;97319.28;4216556;28;7782;-69
2022/09/20 09:17:01;;;;;;;;;;;;;;;17.77;43.30;97322.88;4216993;28;5683;-69
2022/09/20 09:19:27;;;;;;;;;;;;;;;17.84;43.12;97318.28;4216155;28;5897;-68
2022/09/20 09:21:35;;;;;;;;;;;;;;;17.87;42.91;97320.50;4205906;28;5657;-68
2022/09/20 09:23:41;;;;;;;;;;;;;;;17.88;42.90;97319.44;4219807;28;5822;-69
2022/09/20 09:25:44;;;;;;;;;;;;;;;17.86;42.79;97318.88;4214863;28;5675;-68
2022/09/20 09:27:53;;;;;;;;;;;;;;;17.86;43.00;97310.84;4216320;28;5671;-68
2022/09/20 09:29:58;;;;;;;;;;;;;;;17.89;42.79;97313.06;4199883;28;5783;-69
2022/09/20 09:32:23;;;;;;;;;;;;;;;17.93;42.65;97308.91;4211763;28;5840;-68
2022/09/20 09:34:29;;;;;;;;;;;;;;;17.92;42.60;97306.47;4207455;28;5730;-67
2022/09/20 09:36:32;;;;;;;;;;;;;;;17.99;42.60;97313.31;4220519;28;5671;-68
2022/09/20 09:38:38;;;;;;;;;;;;;;;18.01;42.62;97310.44;4216466;28;5742;-69
2022/09/20 09:40:50;;;;;;;;;;;;;;;18.02;42.52;97315.56;4216268;28;5806;-69
2022/09/20 09:42:55;;;;;;;;;;;;;;;18.06;42.37;97299.88;4216757;28;5671;-70
2022/09/20 09:45:10;;;;;;;;;;;;;;;18.08;42.22;97308.47;4215843;28;5703;-68
2022/09/20 09:47:27;;;;;;;;;;;;;;;18.09;42.17;97293.25;4219019;28;5648;-69
2022/09/20 09:49:34;;;;;;;;;;;;;;;18.09;42.35;97299.41;4205700;28;5686;-70
2022/09/20 09:51:41;;;;;;;;;;;;;;;18.10;42.25;97295.69;4221051;28;5678;-68
2022/09/20 09:53:45;;;;;;;;;;;;;;;18.15;42.19;97303.84;4215951;28;5757;-69
2022/09/20 09:56:16;;;;;;;;;;;;;;;18.17;41.98;97295.59;4216593;28;5073;-69
2022/09/20 09:58:32;;;;;;;;;;;;;;;18.22;41.91;97298.38;4212078;28;5666;-69
2022/09/20 10:00:41;;;;;;;;;;;;;;;18.23;41.98;97289.31;4215663;28;5738;-68
2022/09/20 10:03:10;;;;;;;;;;;;;;;18.24;41.69;97296.31;4214168;28;5663;-68
2022/09/20 10:05:22;;;;;;;;;;;;;;;18.24;41.73;97291.78;4221699;28;5740;-70
2022/09/20 10:07:37;;;;;;;;;;;;;;;18.27;41.43;97283.28;4236172;28;5740;-68
2022/09/20 10:09:58;;;;;;;;;;;;;;;18.34;41.39;97297.38;4228411;27;5678;-68
2022/09/20 10:12:25;;;;;;;;;;;;;;;18.37;41.44;97293.44;4219402;28;5849;-68
2022/09/20 10:14:40;;;;;;;;;;;;;;;18.41;41.29;97299.13;4219389;27;5678;-68
2022/09/20 10:17:05;;;;;;;;;;;;;;;18.40;41.29;97290.28;4227727;28;5809;-68
2022/09/20 10:19:16;;;;;;;;;;;;;;;18.45;41.09;97290.41;4230262;28;5795;-68
2022/09/20 10:21:40;;;;;;;;;;;;;;;18.48;40.93;97291.81;4231933;27;5687;-68
2022/09/20 10:23:55;;;;;;;;;;;;;;;18.46;40.87;97288.53;4219088;28;5675;-69
2022/09/20 10:26:21;;;;;;;;;;;;;;;18.46;40.87;97293.88;4218926;28;6023;-67
2022/09/20 10:28:47;;;;;;;;;;;;;;;18.48;40.93;97283.78;4218616;28;5679;-69
2022/09/20 10:31:02;;;;;;;;;;;;;;;18.49;40.77;97288.09;4218690;28;6337;-68
2022/09/20 10:33:18;;;;;;;;;;;;;;;18.51;40.49;97294.84;4218456;28;5175;-69
2022/09/20 10:35:27;;;;;;;;;;;;;;;18.53;40.57;97292.75;4218667;28;5718;-69
2022/09/20 10:37:40;;;;;;;;;;;;;;;18.57;40.52;97279.69;4214817;28;5794;-69
2022/09/20 10:39:58;;;;;;;;;;;;;;;18.61;40.31;97283.56;4204603;28;5690;-69
2022/09/20 10:44:52;;;;;;;;;;;;;;;18.70;40.49;97270.69;4200480;28;5820;-69
2022/09/20 10:47:05;;;;;;;;;;;;;;;18.70;40.19;97273.38;4202181;28;5687;-69
2022/09/20 10:49:22;;;;;;;;;;;;;;;18.67;40.31;97268.44;4203832;28;5700;-68
2022/09/20 10:51:38;;;;;;;;;;;;;;;18.70;40.32;97262.66;4202034;28;5700;-69
2022/09/20 10:53:49;;;;;;;;;;;;;;;18.72;40.04;97273.94;4215709;28;5697;-68
2022/09/20 10:56:03;;;;;;;;;;;;;;;18.72;40.26;97264.03;4218887;27;5675;-69
2022/09/20 10:58:30;;;;;;;;;;;;;;;18.70;40.06;97266.13;4221341;28;5739;-69
2022/09/20 11:00:46;;;;;;;;;;;;;;;18.68;40.06;97262.03;4235468;28;5641;-68
2022/09/20 11:03:03;;;;;;;;;;;;;;;18.70;40.04;97266.13;4235771;28;5645;-68
2022/09/20 11:05:20;;;;;;;;;;;;;;;18.73;39.90;97275.56;4231443;28;5757;-68
2022/09/20 11:07:37;;;;;;;;;;;;;;;18.72;39.82;97264.03;4201238;28;5674;-68
2022/09/20 11:09:47;;;;;;;;;;;;;;;18.77;39.86;97266.00;4202198;28;5662;-68
2022/09/20 11:11:54;;;;;;;;;;;;;;;18.82;39.85;97266.13;4201988;28;5695;-69
2022/09/20 11:14:03;;;;;;;;;;;;;;;18.86;39.76;97267.28;4202146;28;5062;-69
2022/09/20 11:16:13;;;;;;;;;;;;;;;18.85;39.50;97271.84;4214557;28;5769;-69
2022/09/20 11:18:22;;;;;;;;;;;;;;;18.86;39.64;97265.44;4218199;28;5789;-69
2022/09/20 11:20:30;;;;;;;;;;;;;;;18.87;39.63;97267.06;4217295;28;5667;-69
2022/09/20 11:22:38;;;;;;;;;;;;;;;18.89;39.49;97266.81;4216345;28;5678;-69
2022/09/20 11:24:45;;;;;;;;;;;;;;;18.96;39.61;97272.06;4218257;28;5670;-69
2022/09/20 11:26:52;;;;;;;;;;;;;;;19.00;39.50;97265.19;4217441;28;5734;-69
2022/09/20 11:28:59;;;;;;;;;;;;;;;19.03;39.44;97272.75;4216436;28;5710;-69
2022/09/20 11:31:07;;;;;;;;;;;;;;;19.05;39.31;97270.66;4228863;28;5088;-69
2022/09/20 11:33:19;;;;;;;;;;;;;;;19.08;39.19;97271.00;4218017;28;5659;-69
2022/09/20 11:35:30;;;;;;;;;;;;;;;19.09;39.19;97261.09;4222953;28;5688;-68
2022/09/20 11:37:39;;;;;;;;;;;;;;;19.12;39.22;97268.66;4216711;28;5914;-68
2022/09/20 11:39:48;;;;;;;;;;;;;;;19.15;39.03;97266.34;4211645;28;5769;-69
2022/09/20 11:41:56;;;;;;;;;;;;;;;19.19;39.19;97256.75;4216926;28;5877;-69
2022/09/20 11:44:03;;;;;;;;;;;;;;;19.18;39.13;97260.50;4217476;28;5726;-68
2022/09/20 11:46:10;;;;;;;;;;;;;;;19.21;38.89;97267.25;4218317;28;5780;-68
2022/09/20 11:48:20;;;;;;;;;;;;;;;19.20;38.92;97261.06;4216736;28;5674;-68
2022/09/20 11:50:47;;;;;;;;;;;;;;;19.20;38.96;97260.25;4216841;28;5749;-68
2022/09/20 11:53:02;;;;;;;;;;;;;;;19.23;38.76;97267.00;4201214;28;5691;-69
2022/09/20 11:55:33;;;;;;;;;;;;;;;19.23;38.64;97261.63;4206252;28;5788;-68
2022/09/20 11:57:37;;;;;;;;;;;;;;;19.23;38.65;97267.81;4217624;28;5773;-68
2022/09/20 11:59:42;;;;;;;;;;;;;;;19.25;38.69;97254.16;4218190;28;5655;-68
2022/09/20 12:01:45;;;;;;;;;;;;;;;19.29;38.76;97260.72;4217999;28;5683;-70
2022/09/20 12:03:53;;;;;;;;;;;;;;;19.32;38.72;97270.94;4217521;28;5892;-69
2022/09/20 12:06:28;;;;;;;;;;;;;;;19.30;38.73;97257.78;4217291;28;5773;-68
2022/09/20 12:08:36;;;;;;;;;;;;;;;19.34;38.49;97263.47;4217199;28;5682;-69
2022/09/20 12:10:40;;;;;;;;;;;;;;;19.35;38.58;97257.06;4217502;28;6419;-69
2022/09/20 12:12:47;;;;;;;;;;;;;;;19.37;38.64;97257.66;4216491;28;5666;-70
2022/09/20 12:14:55;;;;;;;;;;;;;;;19.38;38.59;97253.94;4217367;28;5671;-68
2022/09/20 12:17:01;;;;;;;;;;;;;;;19.41;38.47;97253.44;4215271;28;5671;-69
2022/09/20 12:19:12;;;;;;;;;;;;;;;19.44;38.54;97258.31;4223771;28;6565;-68
2022/09/20 12:21:19;;;;;;;;;;;;;;;19.46;38.32;97256.22;4217670;28;6450;-68
2022/09/20 12:23:59;;;;;;;;;;;;;;;19.47;38.38;97253.28;4217428;28;5674;-69
2022/09/20 12:26:09;;;;;;;;;;;;;;;19.50;38.22;97241.28;4209456;28;5798;-69
2022/09/20 12:28:16;;;;;;;;;;;;;;;19.52;38.25;97249.91;4206231;28;5874;-69
2022/09/20 12:30:21;;;;;;;;;;;;;;;19.52;38.06;97239.19;4216293;28;5739;-68
2022/09/20 12:32:44;;;;;;;;;;;;;;;19.54;38.11;97244.31;4216211;28;5663;-68
2022/09/20 12:34:49;;;;;;;;;;;;;;;19.52;38.06;97247.22;4216363;27;5746;-69
2022/09/20 12:37:18;;;;;;;;;;;;;;;19.54;38.05;97246.97;4216911;28;5678;-69
2022/09/20 12:39:26;;;;;;;;;;;;;;;19.53;37.90;97246.16;4225590;27;6446;-69
2022/09/20 12:41:51;;;;;;;;;;;;;;;19.52;37.93;97247.22;4249711;27;5103;-69
2022/09/20 12:44:04;;;;;;;;;;;;;;;19.49;37.87;97239.66;4200385;28;5691;-69
2022/09/20 12:46:07;;;;;;;;;;;;;;;19.53;37.76;97238.13;4217110;28;5767;-69
2022/09/20 12:48:19;;;;;;;;;;;;;;;19.55;37.77;97235.19;4216069;28;5682;-69
2022/09/20 12:52:52;;;;;;;;;;;;;;;19.57;37.48;97241.97;4225175;28;5765;-70
2022/09/20 12:54:57;;;;;;;;;;;;;;;19.60;37.23;97230.78;4218232;28;5722;-69
2022/09/20 12:57:27;;;;;;;;;;;;;;;19.60;37.40;97235.34;4216862;28;5735;-69
2022/09/20 12:59:30;;;;;;;;;;;;;;;19.60;37.26;97236.16;4215484;28;5741;-68
2022/09/20 13:01:37;;;;;;;;;;;;;;;19.61;37.23;97227.06;4216873;28;5698;-69
2022/09/20 13:03:42;;;;;;;;;;;;;;;19.64;36.92;97234.63;4216425;28;6344;-69
2022/09/20 13:05:47;;;;;;;;;;;;;;;19.66;36.84;97223.66;4225899;28;5900;-69
2022/09/20 13:08:00;;;;;;;;;;;;;;;19.69;36.90;97237.38;4220822;27;7149;-69
2022/09/20 13:10:14;;;;;;;;;;;;;;;19.69;36.80;97226.66;4216887;28;5671;-69
2022/09/20 13:12:18;;;;;;;;;;;;;;;19.70;36.72;97225.59;4217514;28;5897;-68
2022/09/20 13:14:23;;;;;;;;;;;;;;;19.71;36.54;97226.44;4216631;28;5783;-69
2022/09/20 13:16:31;;;;;;;;;;;;;;;19.71;36.35;97229.94;4216749;28;5682;-69
2022/09/20 13:18:36;;;;;;;;;;;;;;;19.71;36.07;97229.94;4216256;28;5674;-69
2022/09/20 13:20:43;;;;;;;;;;;;;;;19.71;35.62;97221.06;4216445;28;5738;-69
2022/09/20 13:22:47;;;;;;;;;;;;;;;19.74;35.63;97224.06;4218210;28;5765;-69
2022/09/20 13:24:54;;;;;;;;;;;;;;;19.78;35.64;97225.22;4215281;28;5737;-69
2022/09/20 13:27:06;;;;;;;;;;;;;;;19.81;35.31;97221.22;4216527;27;5789;-69
2022/09/20 13:29:26;;;;;;;;;;;;;;;19.82;35.05;97217.50;4216122;27;5742;-69
2022/09/20 13:31:32;;;;;;;;;;;;;;;19.85;35.17;97224.25;4215897;28;5671;-69
2022/09/20 13:33:35;;;;;;;;;;;;;;;19.85;35.23;97219.72;4217672;28;5702;-69
2022/09/20 13:35:39;;;;;;;;;;;;;;;19.87;34.87;97214.09;4215180;28;5671;-69
2022/09/20 13:37:51;;;;;;;;;;;;;;;19.87;35.04;97217.59;4213563;28;5794;-70
2022/09/20 13:39:57;;;;;;;;;;;;;;;19.90;34.80;97213.59;4212877;28;5762;-69
2022/09/20 13:42:05;;;;;;;;;;;;;;;19.92;34.83;97214.16;4217865;28;5952;-69
2022/09/20 13:44:17;;;;;;;;;;;;;;;19.93;34.88;97207.75;4203389;28;5695;-69
2022/09/20 13:46:26;;;;;;;;;;;;;;;19.95;34.72;97211.03;4208443;28;5699;-69
2022/09/20 13:48:30;;;;;;;;;;;;;;;19.98;34.56;97213.22;4216084;28;5704;-69
2022/09/20 13:50:36;;;;;;;;;;;;;;;19.99;34.63;97222.88;4223004;28;5894;-70
2022/09/20 13:52:51;;;;;;;;;;;;;;;19.98;34.38;97214.03;4234343;28;5633;-70
2022/09/20 13:54:55;;;;;;;;;;;;;;;20.00;34.50;97214.59;4221731;28;8419;-70
2022/09/20 13:57:03;;;;;;;;;;;;;;;20.01;34.61;97215.41;4219421;28;5682;-70
2022/09/20 13:59:06;;;;;;;;;;;;;;;20.01;34.44;97199.31;4219783;27;7215;-70
2022/09/20 14:01:24;;;;;;;;;;;;;;;20.02;34.45;97206.28;4219595;28;5687;-70
2022/09/20 14:03:32;;;;;;;;;;;;;;;20.02;34.47;97208.97;4220147;28;5694;-69
2022/09/20 14:05:38;;;;;;;;;;;;;;;20.06;34.26;97210.13;4218120;28;6316;-68
2022/09/20 14:07:45;;;;;;;;;;;;;;;20.07;34.26;97198.34;4218190;28;5762;-69
2022/09/20 14:09:49;;;;;;;;;;;;;;;20.09;34.17;97212.34;4219695;28;5674;-70
2022/09/20 14:11:53;;;;;;;;;;;;;;;20.10;34.00;97213.94;4219407;28;5680;-69
2022/09/20 14:14:00;;;;;;;;;;;;;;;20.12;34.08;97211.03;4219198;28;5765;-69
2022/09/20 14:16:12;;;;;;;;;;;;;;;20.13;34.04;97207.28;4219669;28;5782;-68
2022/09/20 14:18:20;;;;;;;;;;;;;;;20.12;33.89;97206.47;4219050;28;5797;-68
2022/09/20 14:20:25;;;;;;;;;;;;;;;20.14;33.87;97204.34;4219174;28;5666;-68
2022/09/20 14:22:29;;;;;;;;;;;;;;;20.14;34.13;97204.34;4219387;28;5774;-68
2022/09/20 14:24:34;;;;;;;;;;;;;;;20.13;34.10;97200.03;4207949;28;5850;-64
2022/09/20 14:26:38;;;;;;;;;;;;;;;20.15;34.10;97205.16;4218453;28;5694;-68
2022/09/20 14:28:42;;;;;;;;;;;;;;;20.13;33.84;97194.66;4221866;28;5810;-69
2022/09/20 14:30:48;;;;;;;;;;;;;;;20.13;33.73;97200.03;4216325;28;5815;-71
2022/09/20 14:32:54;;;;;;;;;;;;;;;20.13;33.87;97202.72;4208598;28;5746;-72
2022/09/20 14:35:04;;;;;;;;;;;;;;;20.17;33.70;97189.66;4219136;28;5658;-69
2022/09/20 14:37:14;;;;;;;;;;;;;;;20.16;33.81;97190.69;4219178;28;5915;-67
2022/09/20 14:39:19;;;;;;;;;;;;;;;20.18;33.95;97194.78;4203339;28;5762;-67
2022/09/20 14:41:28;;;;;;;;;;;;;;;20.16;34.09;97202.25;4211496;28;5758;-70
2022/09/20 14:43:33;;;;;;;;;;;;;;;20.16;33.86;97196.88;4218597;28;5721;-69
2022/09/20 14:45:38;;;;;;;;;;;;;;;20.16;33.83;97196.03;4214249;27;5731;-68
2022/09/20 14:47:54;;;;;;;;;;;;;;;20.16;33.91;97191.53;4210727;28;5868;-68
2022/09/20 14:49:57;;;;;;;;;;;;;;;20.19;33.89;97195.56;4214575;28;5926;-68
2022/09/20 14:52:35;;;;;;;;;;;;;;;20.21;33.90;97199.63;4216301;28;5865;-68
2022/09/20 14:54:38;;;;;;;;;;;;;;;20.22;33.95;97189.72;4216566;28;5674;-68
2022/09/20 14:56:42;;;;;;;;;;;;;;;20.20;33.87;97189.97;4216948;28;5833;-68
2022/09/20 14:59:04;;;;;;;;;;;;;;;20.20;33.81;97184.59;4212350;28;5694;-68
2022/09/20 15:01:22;;;;;;;;;;;;;;;20.19;33.76;97201.75;4216484;28;6538;-68
2022/09/20 15:03:29;;;;;;;;;;;;;;;20.20;33.89;97187.28;4204897;28;5866;-69
2022/09/20 15:05:33;;;;;;;;;;;;;;;20.20;33.83;97186.47;4216684;28;5700;-68
2022/09/20 15:07:38;;;;;;;;;;;;;;;20.21;33.63;97198.81;4200909;28;5820;-68
2022/09/20 15:09:43;;;;;;;;;;;;;;;20.22;33.74;97193.22;4208126;28;5694;-69
2022/09/20 15:11:48;;;;;;;;;;;;;;;20.22;33.57;97190.53;4222063;28;5830;-68
2022/09/20 15:13:51;;;;;;;;;;;;;;;20.20;33.57;97187.28;4216349;28;5756;-69
2022/09/20 15:15:55;;;;;;;;;;;;;;;20.20;33.68;97198.00;4216562;28;6414;-68
2022/09/20 15:17:57;;;;;;;;;;;;;;;20.19;33.67;97185.66;4208789;28;5946;-70
2022/09/20 15:20:01;;;;;;;;;;;;;;;20.18;33.84;97194.78;4200724;28;5783;-68
2022/09/20 15:22:08;;;;;;;;;;;;;;;20.19;33.76;97199.06;4215877;28;5799;-66
2022/09/20 15:24:16;;;;;;;;;;;;;;;20.17;33.77;97190.47;4217482;28;5960;-68
2022/09/20 15:26:20;;;;;;;;;;;;;;;20.18;33.74;97200.13;4216440;28;5844;-75
2022/09/20 15:28:25;;;;;;;;;;;;;;;20.17;33.73;97193.16;4214215;28;5798;-70
2022/09/20 15:30:29;;;;;;;;;;;;;;;20.18;33.58;97191.28;4216887;28;5662;-70
2022/09/20 15:32:32;;;;;;;;;;;;;;;20.15;33.71;97181.81;4217036;28;5758;-70
2022/09/20 15:34:35;;;;;;;;;;;;;;;20.13;33.68;97192.00;4214751;28;6820;-71
2022/09/20 15:36:38;;;;;;;;;;;;;;;20.14;33.72;97185.56;4213844;28;5691;-71
2022/09/20 15:38:42;;;;;;;;;;;;;;;20.14;33.80;97188.25;4216731;28;5750;-71
2022/09/20 15:40:48;;;;;;;;;;;;;;;20.14;33.67;97188.25;4209736;28;5679;-72
2022/09/20 15:42:56;;;;;;;;;;;;;;;20.15;33.74;97189.06;4215979;28;5729;-72
2022/09/20 15:44:59;;;;;;;;;;;;;;;20.15;33.66;97195.22;4211627;28;5806;-74
2022/09/20 15:47:04;;;;;;;;;;;;;;;20.16;33.69;97196.88;4211443;28;5693;-73
2022/09/20 15:49:07;;;;;;;;;;;;;;;20.14;33.76;97193.59;4208652;28;5688;-74
2022/09/20 15:51:13;;;;;;;;;;;;;;;20.13;33.95;97199.22;4212339;28;5773;-74
2022/09/20 15:53:17;;;;;;;;;;;;;;;20.13;33.62;97191.16;4213183;28;5113;-72
2022/09/20 15:55:21;;;;;;;;;;;;;;;20.12;33.57;97198.41;4208914;28;5670;-72
2022/09/20 15:57:25;;;;;;;;;;;;;;;20.12;33.77;97200.28;4213310;28;5657;-72
2022/09/20 15:59:28;;;;;;;;;;;;;;;20.09;33.85;97211.50;4213859;28;5674;-68
2022/09/20 16:01:34;;;;;;;;;;;;;;;20.06;33.71;97207.47;4215151;28;5844;-72
2022/09/20 16:03:37;;;;;;;;;;;;;;;20.06;33.68;97202.09;4211078;28;5695;-73
2022/09/20 16:05:40;;;;;;;;;;;;;;;20.06;33.83;97196.72;4207924;28;5692;-73
2022/09/20 16:07:43;;;;;;;;;;;;;;;20.06;33.90;97204.78;4211931;28;5733;-72
2022/09/20 16:09:46;;;;;;;;;;;;;;;20.07;33.76;97203.72;4209690;28;5762;-73
2022/09/20 16:11:49;;;;;;;;;;;;;;;20.07;33.70;97201.03;4215840;28;5671;-73
2022/09/20 16:13:54;;;;;;;;;;;;;;;20.05;33.80;97208.50;4217446;28;5823;-73
2022/09/20 16:15:59;;;;;;;;;;;;;;;20.01;33.90;97205.47;4217566;28;5807;-72
2022/09/20 16:20:22;;;;;;;;;;;;;;;19.92;33.98;97211.50;4215268;28;7730;-70
2022/09/20 16:22:25;;;;;;;;;;;;;;;19.92;34.04;97214.16;4204843;28;5830;-69
2022/09/20 16:24:30;;;;;;;;;;;;;;;19.90;33.90;97210.91;4219387;28;5731;-70
2022/09/20 16:26:34;;;;;;;;;;;;;;;19.89;33.79;97220.84;4216276;27;5873;-71
2022/09/20 16:28:37;;;;;;;;;;;;;;;19.86;33.91;97215.97;4215198;28;5815;-71
2022/09/20 16:30:41;;;;;;;;;;;;;;;19.82;33.86;97212.16;4217283;28;5834;-71
2022/09/20 16:32:45;;;;;;;;;;;;;;;19.84;33.79;97214.59;4215275;28;5824;-72
2022/09/20 16:34:48;;;;;;;;;;;;;;;19.84;33.68;97219.94;4213629;28;5659;-70
2022/09/20 16:36:53;;;;;;;;;;;;;;;19.83;33.95;97223.69;4214757;28;5777;-67
2022/09/20 16:38:56;;;;;;;;;;;;;;;19.80;34.01;97213.41;4214693;28;5724;-69
2022/09/20 16:41:01;;;;;;;;;;;;;;;19.77;34.12;97220.91;4219844;28;5668;-70
2022/09/20 16:43:07;;;;;;;;;;;;;;;19.77;33.92;97220.09;4215453;28;5686;-70
2022/09/20 16:45:12;;;;;;;;;;;;;;;19.75;33.96;97214.16;4214650;28;6332;-69
2022/09/20 16:47:19;;;;;;;;;;;;;;;19.73;33.90;97216.28;4215525;27;5750;-69
2022/09/20 16:49:25;;;;;;;;;;;;;;;19.71;33.97;97221.88;4214903;27;6328;-69
2022/09/20 16:51:30;;;;;;;;;;;;;;;19.70;34.07;97224.78;4215089;28;5781;-70
2022/09/20 16:53:33;;;;;;;;;;;;;;;19.69;34.11;97218.59;4219036;27;5678;-69
2022/09/20 16:55:37;;;;;;;;;;;;;;;19.70;34.16;97219.41;4219976;28;5740;-69
2022/09/20 16:57:39;;;;;;;;;;;;;;;19.71;34.23;97216.53;4216174;28;5679;-69
2022/09/20 16:59:43;;;;;;;;;;;;;;;19.68;34.02;97222.34;4216683;27;5697;-69
2022/09/20 17:01:46;;;;;;;;;;;;;;;19.67;34.26;97226.06;4214691;28;5746;-69